Time;durP1;ratioP1;P1;durP2;ratioP2;P2;SDS_P1;SDS_P2;PMS_P1;PMS_P2;Temp;Humidity;BMP_temperature;BMP_pressure;BME280_temperature;BME280_humidity;BME280_pressure;Samples;Min_cycle;Max_cycle;Signal;HPM_P1;HPM_P2
2021/11/21 00:00:23;;;;;;;0.38;0.20;;;;;;;7.05;96.25;99762.38;5093923;28;20024;-79
2021/11/21 00:02:49;;;;;;;0.38;0.20;;;;;;;7.03;96.42;99771.88;5084042;28;20032;-79
2021/11/21 00:05:14;;;;;;;0.38;0.30;;;;;;;7.02;96.29;99759.44;5072432;28;20465;-80
2021/11/21 00:07:40;;;;;;;0.43;0.20;;;;;;;6.97;96.47;99756.72;5083271;28;20039;-80
2021/11/21 00:10:06;;;;;;;1.55;0.50;;;;;;;6.88;96.24;99765.41;5091600;28;20052;-80
2021/11/21 00:12:31;;;;;;;1.65;0.30;;;;;;;6.83;96.23;99780.88;5091383;28;20099;-80
2021/11/21 00:14:57;;;;;;;0.40;0.10;;;;;;;6.78;96.36;99789.81;5093535;28;20409;-80
2021/11/21 00:17:22;;;;;;;1.02;0.20;;;;;;;6.74;95.84;99806.88;5084754;28;20016;-80
2021/11/21 00:19:47;;;;;;;0.20;0.20;;;;;;;6.70;95.82;99801.19;5073368;28;20478;-80
2021/11/21 00:22:13;;;;;;;0.43;0.30;;;;;;;6.66;96.08;99803.63;5078065;28;20024;-80
2021/11/21 00:24:42;;;;;;;0.93;0.40;;;;;;;6.63;95.99;99804.19;5092285;28;20028;-80
2021/11/21 00:27:08;;;;;;;0.75;0.30;;;;;;;6.61;96.06;99806.34;5085488;28;20024;-80
2021/11/21 00:29:33;;;;;;;0.50;0.25;;;;;;;6.60;96.20;99806.59;5055227;28;20036;-79
2021/11/21 00:31:59;;;;;;;0.30;0.30;;;;;;;6.58;95.97;99804.19;5080510;28;20023;-79
2021/11/21 00:34:24;;;;;;;0.20;0.20;;;;;;;6.57;96.01;99817.97;5077874;28;20546;-79
2021/11/21 00:36:50;;;;;;;0.63;0.28;;;;;;;6.56;96.26;99817.19;5072942;28;20093;-80
2021/11/21 00:39:15;;;;;;;0.43;0.30;;;;;;;6.56;96.30;99822.59;5071788;28;20042;-80
2021/11/21 00:41:41;;;;;;;2.53;0.30;;;;;;;6.54;96.16;99815.81;5071490;28;20501;-80
2021/11/21 00:44:06;;;;;;;0.70;0.30;;;;;;;6.53;95.96;99814.19;5073163;28;20025;-80
2021/11/21 00:46:31;;;;;;;2.60;0.30;;;;;;;6.52;95.88;99817.97;5072688;28;20070;-80
2021/11/21 00:48:57;;;;;;;0.80;0.30;;;;;;;6.50;96.14;99815.56;5092963;28;20414;-80
2021/11/21 00:51:23;;;;;;;0.50;0.20;;;;;;;6.49;96.15;99816.63;5091786;28;20030;-80
2021/11/21 00:53:52;;;;;;;0.93;0.32;;;;;;;6.45;95.96;99826.38;5091919;28;20099;-80
2021/11/21 00:56:19;;;;;;;1.52;0.30;;;;;;;6.41;96.09;99823.41;5075303;28;20028;-79
2021/11/21 00:58:44;;;;;;;0.43;0.30;;;;;;;6.40;96.04;99834.50;5074179;28;20032;-80
2021/11/21 01:01:09;;;;;;;3.30;0.30;;;;;;;6.38;95.83;99845.59;5088094;28;20597;-80
2021/11/21 01:03:35;;;;;;;2.22;0.40;;;;;;;6.36;95.49;99845.06;5072487;28;20081;-80
2021/11/21 01:06:02;;;;;;;1.48;0.38;;;;;;;6.36;96.01;99833.41;5072523;28;20032;-80
2021/11/21 01:08:28;;;;;;;0.70;0.30;;;;;;;6.34;95.66;99819.34;5069635;28;20028;-79
2021/11/21 01:11:00;;;;;;;1.75;0.30;;;;;;;6.32;95.91;99806.06;5092902;28;20028;-80
2021/11/21 01:13:26;;;;;;;0.35;0.20;;;;;;;6.29;95.81;99816.63;5091494;28;20081;-79
2021/11/21 01:15:52;;;;;;;1.75;0.32;;;;;;;6.26;95.82;99819.88;5092395;28;20135;-80
2021/11/21 01:18:17;;;;;;;0.95;0.20;;;;;;;6.25;95.72;99826.34;5076527;28;20028;-80
2021/11/21 01:20:43;;;;;;;1.00;0.20;;;;;;;6.23;95.88;99819.31;5072477;28;20024;-80
2021/11/21 01:23:09;;;;;;;0.10;0.10;;;;;;;6.21;95.60;99821.47;5084235;28;20395;-80
2021/11/21 01:25:35;;;;;;;0.50;0.10;;;;;;;6.18;95.48;99815.78;5090421;28;20035;-80
2021/11/21 01:28:00;;;;;;;0.13;0.13;;;;;;;6.16;95.42;99835.00;5090168;28;20020;-80
2021/11/21 01:30:27;;;;;;;0.43;0.20;;;;;;;6.15;95.55;99833.38;5091198;28;20020;-80
2021/11/21 01:32:53;;;;;;;0.32;0.20;;;;;;;6.16;95.87;99834.19;5072234;28;20054;-80
2021/11/21 01:35:19;;;;;;;0.20;0.20;;;;;;;6.18;95.76;99835.53;5091269;28;20495;-80
2021/11/21 01:37:46;;;;;;;0.40;0.20;;;;;;;6.16;95.64;99826.88;5083479;28;20025;-80
2021/11/21 01:40:12;;;;;;;0.25;0.25;;;;;;;6.16;95.61;99832.28;5077157;28;20488;-80
2021/11/21 01:42:38;;;;;;;0.47;0.25;;;;;;;6.16;95.23;99835.00;5078588;28;20028;-80
2021/11/21 01:45:03;;;;;;;0.10;0.10;;;;;;;6.18;95.41;99837.44;5044266;28;20443;-80
2021/11/21 01:47:29;;;;;;;0.10;0.10;;;;;;;6.19;95.63;99839.91;5060853;28;20030;-79
2021/11/21 01:49:54;;;;;;;1.08;0.25;;;;;;;6.19;95.48;99841.75;5077660;28;20040;-80
2021/11/21 01:52:20;;;;;;;0.20;0.20;;;;;;;6.19;95.76;99839.91;5078675;28;20032;-79
2021/11/21 01:54:46;;;;;;;0.50;0.28;;;;;;;6.18;95.59;99835.53;5078796;28;20052;-80
2021/11/21 01:57:11;;;;;;;0.30;0.20;;;;;;;6.18;95.35;99838.25;5079193;28;20024;-80
2021/11/21 01:59:38;;;;;;;0.85;0.17;;;;;;;6.19;95.41;99844.47;5097975;28;20028;-80
2021/11/21 02:02:04;;;;;;;0.20;0.17;;;;;;;6.19;95.38;99845.31;5096598;28;20026;-80
2021/11/21 02:04:29;;;;;;;0.25;0.20;;;;;;;6.19;95.50;99849.88;5097548;28;20020;-80
2021/11/21 02:06:55;;;;;;;0.10;0.10;;;;;;;6.20;95.05;99851.53;5090970;28;20024;-80
2021/11/21 02:09:20;;;;;;;0.20;0.20;;;;;;;6.22;95.43;99854.78;5084484;28;20134;-80
2021/11/21 02:11:46;;;;;;;0.63;0.20;;;;;;;6.23;95.31;99857.22;5078769;28;20074;-81
2021/11/21 02:14:11;;;;;;;1.30;0.20;;;;;;;6.21;95.23;99863.97;5094932;28;20164;-80
2021/11/21 02:16:36;;;;;;;0.13;0.10;;;;;;;6.23;95.33;99867.22;5097430;28;20048;-80
2021/11/21 02:19:02;;;;;;;0.55;0.20;;;;;;;6.21;95.00;99875.59;5097642;28;20035;-80
2021/11/21 02:21:27;;;;;;;1.33;0.20;;;;;;;6.20;95.08;99878.59;5097493;28;20084;-80
2021/11/21 02:23:53;;;;;;;2.13;0.30;;;;;;;6.17;95.12;99877.22;5080146;28;20158;-80
2021/11/21 02:26:18;;;;;;;2.55;0.40;;;;;;;6.16;95.02;99883.69;5097571;28;20016;-80
2021/11/21 02:28:45;;;;;;;1.30;0.30;;;;;;;6.15;95.16;99886.69;5084256;28;20516;-80
2021/11/21 02:31:11;;;;;;;1.45;0.22;;;;;;;6.13;95.01;99892.34;5092258;28;20115;-80
2021/11/21 02:33:37;;;;;;;0.52;0.20;;;;;;;6.10;95.07;99890.19;5090464;28;20103;-80
2021/11/21 02:36:03;;;;;;;1.65;0.30;;;;;;;6.08;94.98;99895.03;5098607;28;20111;-80
2021/11/21 02:38:29;;;;;;;1.20;0.60;;;;;;;6.07;95.00;99892.63;5085777;28;20064;-79
2021/11/21 02:40:55;;;;;;;2.83;0.40;;;;;;;6.05;94.95;99892.06;5078400;28;20039;-79
2021/11/21 02:43:21;;;;;;;0.68;0.35;;;;;;;6.04;95.14;99891.25;5078126;28;20034;-80
2021/11/21 02:45:47;;;;;;;1.60;0.57;;;;;;;6.04;95.11;99896.66;5077087;28;20107;-79
2021/11/21 02:48:20;;;;;;;3.92;0.63;;;;;;;6.05;95.40;99895.56;5085015;28;20027;-80
2021/11/21 02:50:46;;;;;;;1.55;0.30;;;;;;;6.06;95.30;99894.53;5095439;28;20098;-79
2021/11/21 02:53:17;;;;;;;2.28;0.40;;;;;;;6.03;95.37;99895.06;5086742;28;20398;-79
2021/11/21 02:55:42;;;;;;;0.20;0.20;;;;;;;5.99;95.21;99905.56;5073931;28;20768;-79
2021/11/21 02:58:07;;;;;;;3.05;0.40;;;;;;;5.97;95.11;99912.31;5080680;28;20024;-79
2021/11/21 03:00:34;;;;;;;2.33;0.52;;;;;;;5.94;95.53;99910.97;5077145;28;20039;-79
2021/11/21 03:03:00;;;;;;;1.75;0.50;;;;;;;5.94;95.22;99912.84;5085435;28;20055;-79
2021/11/21 03:05:25;;;;;;;1.20;0.70;;;;;;;5.91;95.19;99918.78;5093839;28;20035;-79
2021/11/21 03:07:51;;;;;;;3.03;0.30;;;;;;;5.88;95.19;99919.31;5092591;28;20099;-79
2021/11/21 03:10:19;;;;;;;0.65;0.40;;;;;;;5.86;95.51;99910.63;5094913;28;20028;-79
2021/11/21 03:12:55;;;;;;;1.10;0.40;;;;;;;5.83;95.46;99922.78;5092828;28;20028;-79
2021/11/21 03:15:21;;;;;;;0.70;0.40;;;;;;;5.81;95.64;99919.56;5093384;28;20052;-79
2021/11/21 03:17:47;;;;;;;1.02;0.52;;;;;;;5.82;95.40;99925.78;5093582;28;20374;-79
2021/11/21 03:20:15;;;;;;;0.73;0.40;;;;;;;5.80;95.53;99917.91;5076764;28;20016;-79
2021/11/21 03:22:41;;;;;;;0.50;0.50;;;;;;;5.79;95.74;99921.69;5090759;28;20492;-79
2021/11/21 03:25:06;;;;;;;0.93;0.40;;;;;;;5.77;95.37;99926.56;5073269;28;20111;-79
2021/11/21 03:27:32;;;;;;;0.50;0.38;;;;;;;5.75;95.39;99934.09;5074828;28;20099;-79
2021/11/21 03:29:57;;;;;;;4.60;0.70;;;;;;;5.73;95.21;99925.47;5092090;28;20024;-79
2021/11/21 03:32:23;;;;;;;3.03;0.38;;;;;;;5.75;95.72;99936.81;5076441;28;20498;-79
2021/11/21 03:34:49;;;;;;;0.60;0.40;;;;;;;5.74;95.61;99940.59;5074797;28;20102;-79
2021/11/21 03:37:14;;;;;;;1.08;0.30;;;;;;;5.74;95.70;99938.72;5093414;28;20035;-79
2021/11/21 03:39:40;;;;;;;0.30;0.20;;;;;;;5.74;95.65;99941.41;5075598;28;20024;-79
2021/11/21 03:42:05;;;;;;;0.80;0.20;;;;;;;5.74;95.55;99935.19;5072888;28;20024;-79
2021/11/21 03:44:31;;;;;;;0.70;0.32;;;;;;;5.73;95.42;99945.19;5090440;28;20035;-79
2021/11/21 03:46:56;;;;;;;1.38;0.20;;;;;;;5.72;95.57;99935.44;5094253;28;20145;-79
2021/11/21 03:49:22;;;;;;;0.98;0.20;;;;;;;5.72;95.33;99927.34;5092911;28;20024;-79
2021/11/21 03:51:47;;;;;;;0.85;0.40;;;;;;;5.69;95.38;99938.69;5094097;28;20035;-79
2021/11/21 03:54:13;;;;;;;0.20;0.20;;;;;;;5.67;95.30;99932.72;5079061;28;20029;-79
2021/11/21 03:56:39;;;;;;;0.40;0.20;;;;;;;5.66;95.38;99933.78;5072566;28;20028;-79
2021/11/21 03:59:06;;;;;;;0.20;0.20;;;;;;;5.64;95.31;99930.53;5086003;28;20047;-79
2021/11/21 04:01:32;;;;;;;0.65;0.30;;;;;;;5.63;95.22;99939.72;5092340;28;20031;-79
2021/11/21 04:03:58;;;;;;;0.45;0.20;;;;;;;5.60;95.31;99940.25;5080988;28;20404;-79
2021/11/21 04:06:24;;;;;;;0.30;0.30;;;;;;;5.64;95.20;99951.34;5073538;28;20145;-79
2021/11/21 04:08:51;;;;;;;1.40;0.52;;;;;;;5.62;95.47;99954.34;5073542;28;20040;-79
2021/11/21 04:11:16;;;;;;;1.85;0.50;;;;;;;5.64;95.03;99965.69;5072322;28;20062;-79
2021/11/21 04:13:42;;;;;;;1.17;0.60;;;;;;;5.65;95.38;99964.63;5073496;28;20516;-79
2021/11/21 04:16:07;;;;;;;1.23;0.60;;;;;;;5.66;95.22;99960.84;5073265;28;20460;-79
2021/11/21 04:18:33;;;;;;;2.33;0.65;;;;;;;5.65;95.32;99964.63;5073179;28;20032;-79
2021/11/21 04:20:59;;;;;;;2.38;0.60;;;;;;;5.65;94.94;99970.03;5072285;28;20032;-79
2021/11/21 04:23:29;;;;;;;0.68;0.50;;;;;;;5.65;94.97;99971.94;5078334;28;20028;-79
2021/11/21 04:25:54;;;;;;;3.30;1.50;;;;;;;5.62;94.92;99975.13;5055861;28;20488;-79
2021/11/21 04:28:20;;;;;;;2.63;0.40;;;;;;;5.60;95.01;99975.41;5081354;28;20071;-79
2021/11/21 04:30:45;;;;;;;0.45;0.30;;;;;;;5.59;95.13;99979.16;5091198;28;20028;-79
2021/11/21 04:33:11;;;;;;;1.15;0.30;;;;;;;5.56;94.94;99975.13;5089420;28;20355;-78
2021/11/21 04:35:36;;;;;;;1.15;0.40;;;;;;;5.55;94.84;99992.41;5073039;28;20028;-79
2021/11/21 04:38:03;;;;;;;1.25;0.40;;;;;;;5.55;94.83;99994.28;5074614;28;20027;-78
2021/11/21 04:40:28;;;;;;;1.58;0.45;;;;;;;5.54;94.98;99998.09;5093296;28;20485;-79
2021/11/21 04:42:53;;;;;;;1.10;0.40;;;;;;;5.53;95.12;99993.72;5089896;28;20031;-80
2021/11/21 04:45:19;;;;;;;0.50;0.40;;;;;;;5.54;94.91;100000.78;5092066;28;20031;-78
2021/11/21 04:47:44;;;;;;;2.78;0.63;;;;;;;5.54;95.01;100011.59;5091922;28;20027;-79
2021/11/21 04:50:10;;;;;;;0.73;0.50;;;;;;;5.52;95.07;100008.34;5072042;28;20036;-79
2021/11/21 04:52:36;;;;;;;3.10;0.70;;;;;;;5.49;95.16;100014.25;5071753;28;20424;-79
2021/11/21 04:55:01;;;;;;;2.92;0.60;;;;;;;5.47;94.81;100027.22;5089212;28;20106;-79
2021/11/21 04:57:27;;;;;;;1.05;0.65;;;;;;;5.43;94.89;100034.19;5091839;28;20465;-78
2021/11/21 04:59:53;;;;;;;1.02;0.60;;;;;;;5.39;94.81;100039.31;5089796;28;20032;-79
2021/11/21 05:02:19;;;;;;;1.27;0.40;;;;;;;5.32;94.59;100036.84;5092875;28;20434;-79
2021/11/21 05:04:44;;;;;;;0.90;0.50;;;;;;;5.29;94.39;100050.03;5076086;28;20039;-79
2021/11/21 05:07:10;;;;;;;0.90;0.52;;;;;;;5.22;94.56;100055.66;5072783;28;20024;-79
2021/11/21 05:09:35;;;;;;;1.50;0.60;;;;;;;5.19;94.66;100058.06;5054586;28;20113;-79
2021/11/21 05:12:01;;;;;;;2.80;0.50;;;;;;;5.18;94.65;100064.53;5071262;28;20028;-79
2021/11/21 05:14:26;;;;;;;2.40;0.70;;;;;;;5.14;94.52;100072.34;5082990;28;20071;-79
2021/11/21 05:16:52;;;;;;;0.52;0.40;;;;;;;5.10;94.35;100071.19;5092308;28;20097;-79
2021/11/21 05:19:17;;;;;;;0.75;0.40;;;;;;;5.04;94.44;100078.44;5090077;28;20473;-79
2021/11/21 05:21:43;;;;;;;3.15;0.85;;;;;;;5.02;94.35;100074.34;5092578;28;20073;-79
2021/11/21 05:24:08;;;;;;;1.05;0.45;;;;;;;5.01;94.21;100083.53;5091318;28;20032;-79
2021/11/21 05:26:35;;;;;;;1.48;0.40;;;;;;;4.98;94.20;100079.47;5091406;28;20084;-79
2021/11/21 05:29:00;;;;;;;1.35;0.45;;;;;;;4.97;93.93;100085.13;5068699;28;20582;-79
2021/11/21 05:31:26;;;;;;;0.50;0.40;;;;;;;4.94;94.17;100089.16;5092394;28;20039;-79
2021/11/21 05:33:52;;;;;;;0.52;0.40;;;;;;;4.94;94.12;100099.97;5090209;28;20031;-79
2021/11/21 05:36:17;;;;;;;2.35;0.52;;;;;;;4.95;94.12;100100.78;5074583;28;20028;-79
2021/11/21 05:38:43;;;;;;;0.73;0.35;;;;;;;4.96;94.16;100114.00;5056689;28;20031;-79
2021/11/21 05:41:08;;;;;;;1.05;0.43;;;;;;;4.96;94.11;100110.50;5092488;28;20031;-79
2021/11/21 05:43:33;;;;;;;0.80;0.45;;;;;;;4.93;94.13;100113.69;5091562;28;20028;-79
2021/11/21 05:45:59;;;;;;;1.15;0.60;;;;;;;4.93;93.88;100114.50;5074039;28;20024;-78
2021/11/21 05:48:24;;;;;;;1.42;0.50;;;;;;;4.92;93.99;100112.09;5086157;28;20500;-79
2021/11/21 05:50:50;;;;;;;0.90;0.40;;;;;;;4.90;93.90;100117.72;5092343;28;20024;-78
2021/11/21 05:53:15;;;;;;;1.65;0.43;;;;;;;4.89;93.98;100124.22;5090915;28;20074;-80
2021/11/21 05:55:41;;;;;;;1.33;0.70;;;;;;;4.90;93.81;100126.63;5092290;28;20028;-79
2021/11/21 05:58:06;;;;;;;0.93;0.52;;;;;;;4.92;93.89;100126.41;5089086;28;20024;-79
2021/11/21 06:00:33;;;;;;;0.82;0.40;;;;;;;4.89;93.69;100135.81;5090521;28;20075;-79
2021/11/21 06:02:59;;;;;;;0.93;0.63;;;;;;;4.89;93.78;100137.72;5092195;28;20385;-78
2021/11/21 06:05:24;;;;;;;3.03;0.63;;;;;;;4.88;93.69;100139.59;5073266;28;20050;-78
2021/11/21 06:07:50;;;;;;;3.97;0.63;;;;;;;4.86;93.80;100146.31;5070847;28;20450;-79
2021/11/21 06:10:16;;;;;;;1.58;0.50;;;;;;;4.83;93.71;100144.13;5087006;28;20028;-78
2021/11/21 06:12:41;;;;;;;1.08;0.57;;;;;;;4.82;93.70;100150.56;5092133;28;20028;-79
2021/11/21 06:15:07;;;;;;;4.80;1.10;;;;;;;4.82;93.75;100148.69;5074656;28;20655;-78
2021/11/21 06:17:33;;;;;;;0.95;0.60;;;;;;;4.83;93.80;100154.94;5071858;28;20493;-79
2021/11/21 06:19:58;;;;;;;1.85;0.52;;;;;;;4.82;93.38;100156.78;5085165;28;20032;-79
2021/11/21 06:22:24;;;;;;;2.50;1.50;;;;;;;4.79;93.59;100157.28;5092056;28;20032;-79
2021/11/21 06:24:49;;;;;;;2.10;0.80;;;;;;;4.77;93.49;100156.72;5090800;28;20024;-79
2021/11/21 06:27:15;;;;;;;2.22;0.73;;;;;;;4.75;93.68;100155.38;5085597;28;20016;-79
2021/11/21 06:29:40;;;;;;;2.67;1.13;;;;;;;4.76;93.65;100174.00;5085981;28;20040;-79
2021/11/21 06:32:06;;;;;;;4.72;0.80;;;;;;;4.75;93.51;100172.38;5094692;28;20021;-78
2021/11/21 06:34:31;;;;;;;2.90;0.90;;;;;;;4.73;93.47;100174.50;5084424;28;20103;-79
2021/11/21 06:36:56;;;;;;;1.35;0.68;;;;;;;4.73;93.29;100179.09;5075327;28;20105;-79
2021/11/21 06:39:22;;;;;;;2.55;0.80;;;;;;;4.74;93.45;100186.13;5082006;28;20035;-79
2021/11/21 06:41:47;;;;;;;2.95;0.95;;;;;;;4.72;93.46;100189.09;5095594;28;20028;-79
2021/11/21 06:44:13;;;;;;;1.20;0.60;;;;;;;4.71;93.24;100195.53;5094374;28;20047;-79
2021/11/21 06:46:38;;;;;;;2.90;0.90;;;;;;;4.71;93.69;100200.13;5094275;28;20023;-78
2021/11/21 06:49:04;;;;;;;1.70;0.70;;;;;;;4.69;93.26;100200.34;5089378;28;20033;-78
2021/11/21 06:51:29;;;;;;;1.60;0.65;;;;;;;4.67;93.47;100213.31;5074160;28;20026;-78
2021/11/21 06:53:55;;;;;;;1.95;0.60;;;;;;;4.65;93.25;100210.84;5078517;28;20110;-78
2021/11/21 06:56:20;;;;;;;1.17;0.50;;;;;;;4.64;93.16;100221.91;5085439;28;20060;-78
2021/11/21 06:58:47;;;;;;;1.33;0.40;;;;;;;4.63;93.20;100223.75;5077004;28;20085;-78
2021/11/21 07:01:13;;;;;;;1.02;0.50;;;;;;;4.64;93.26;100224.59;5093837;28;20028;-78
2021/11/21 07:03:38;;;;;;;0.68;0.40;;;;;;;4.63;93.27;100233.75;5094189;28;20028;-78
2021/11/21 07:06:04;;;;;;;1.67;0.43;;;;;;;4.64;93.22;100236.22;5095119;28;20673;-78
2021/11/21 07:08:30;;;;;;;0.80;0.50;;;;;;;4.64;93.17;100247.03;5094448;28;20039;-78
2021/11/21 07:10:57;;;;;;;1.25;0.40;;;;;;;4.61;93.23;100246.69;5057294;28;20042;-78
2021/11/21 07:13:23;;;;;;;0.73;0.40;;;;;;;4.59;92.98;100256.94;5074633;28;20024;-78
2021/11/21 07:15:49;;;;;;;1.38;0.60;;;;;;;4.58;92.91;100283.09;5091591;28;20044;-78
2021/11/21 07:18:14;;;;;;;2.50;0.50;;;;;;;4.58;93.02;100268.78;5076758;28;20104;-78
2021/11/21 07:20:39;;;;;;;1.20;0.40;;;;;;;4.60;92.74;100266.66;5092603;28;20218;-78
2021/11/21 07:23:06;;;;;;;0.70;0.50;;;;;;;4.59;92.80;100275.81;5094610;28;20382;-78
2021/11/21 07:25:32;;;;;;;1.00;0.50;;;;;;;4.60;92.80;100293.66;5088482;28;20066;-78
2021/11/21 07:27:57;;;;;;;1.73;0.80;;;;;;;4.62;92.74;100291.53;5076379;28;20020;-78
2021/11/21 07:30:23;;;;;;;1.23;0.70;;;;;;;4.62;92.77;100297.72;5093857;28;20055;-78
2021/11/21 07:32:48;;;;;;;0.65;0.43;;;;;;;4.63;92.68;100314.75;5091881;28;20527;-78
2021/11/21 07:35:15;;;;;;;1.05;0.50;;;;;;;4.62;92.58;100307.72;5092231;28;20039;-78
2021/11/21 07:37:40;;;;;;;1.48;0.60;;;;;;;4.61;92.40;100316.88;5092826;28;20089;-79
2021/11/21 07:40:06;;;;;;;1.77;1.10;;;;;;;4.61;92.35;100322.25;5092540;28;20469;-79
2021/11/21 07:42:32;;;;;;;1.65;0.40;;;;;;;4.61;92.41;100327.66;5076748;28;20028;-78
2021/11/21 07:44:57;;;;;;;1.73;0.40;;;;;;;4.60;92.32;100339.53;5091932;28;20051;-78
2021/11/21 07:47:22;;;;;;;0.68;0.38;;;;;;;4.57;92.10;100337.34;5094138;28;20389;-78
2021/11/21 07:49:48;;;;;;;1.13;0.40;;;;;;;4.56;92.12;100341.09;5093368;28;20036;-77
2021/11/21 07:52:13;;;;;;;1.33;0.50;;;;;;;4.56;92.16;100346.50;5092601;28;20057;-78
2021/11/21 07:54:40;;;;;;;1.30;0.50;;;;;;;4.55;92.04;100339.44;5082968;28;20504;-78
2021/11/21 07:57:06;;;;;;;0.77;0.50;;;;;;;4.55;92.08;100350.25;5073542;28;20082;-78
2021/11/21 07:59:31;;;;;;;0.80;0.30;;;;;;;4.51;91.73;100355.31;5061085;28;20031;-78
2021/11/21 08:01:57;;;;;;;0.73;0.50;;;;;;;4.50;92.00;100364.50;5092449;28;20028;-79
2021/11/21 08:04:22;;;;;;;1.40;0.68;;;;;;;4.50;92.30;100366.34;5088510;28;20032;-78
2021/11/21 08:06:47;;;;;;;1.02;0.40;;;;;;;4.49;91.92;100378.22;5073469;28;20020;-79
2021/11/21 08:09:13;;;;;;;1.15;0.40;;;;;;;4.47;91.65;100380.34;5078935;28;20469;-78
2021/11/21 08:11:38;;;;;;;1.25;0.60;;;;;;;4.45;91.63;100383.31;5086914;28;20027;-77
2021/11/21 08:14:03;;;;;;;1.75;0.70;;;;;;;4.44;91.47;100387.84;5092540;28;20428;-78
2021/11/21 08:16:29;;;;;;;1.02;0.40;;;;;;;4.45;91.58;100392.22;5093405;28;20090;-78
2021/11/21 08:18:54;;;;;;;1.27;0.40;;;;;;;4.45;91.49;100394.91;5092864;28;20069;-78
2021/11/21 08:21:20;;;;;;;0.47;0.35;;;;;;;4.46;91.53;100409.22;5091845;28;20020;-78
2021/11/21 08:23:45;;;;;;;11.82;0.73;;;;;;;4.45;91.55;100411.09;5093504;28;20081;-78
2021/11/21 08:26:10;;;;;;;1.45;0.60;;;;;;;4.45;91.46;100413.81;5074224;28;20039;-78
2021/11/21 08:28:38;;;;;;;1.60;0.47;;;;;;;4.43;91.27;100418.63;5073175;28;20024;-78
2021/11/21 08:31:04;;;;;;;3.05;0.77;;;;;;;4.41;91.32;100431.53;5088344;28;20080;-78
2021/11/21 08:33:29;;;;;;;1.10;0.50;;;;;;;4.38;91.08;100432.03;5093343;28;20028;-78
2021/11/21 08:35:55;;;;;;;0.45;0.40;;;;;;;4.34;91.06;100447.06;5077006;28;20497;-78
2021/11/21 08:38:21;;;;;;;0.70;0.52;;;;;;;4.33;90.72;100448.09;5071769;28;20493;-78
2021/11/21 08:40:46;;;;;;;4.35;0.70;;;;;;;4.31;90.99;100447.56;5072836;28;20036;-78
2021/11/21 08:43:11;;;;;;;0.68;0.50;;;;;;;4.28;91.11;100458.81;5072907;28;20024;-78
2021/11/21 08:45:37;;;;;;;0.95;0.45;;;;;;;4.28;91.15;100472.28;5071584;28;20474;-78
2021/11/21 08:48:03;;;;;;;1.52;0.80;;;;;;;4.28;90.68;100475.00;5072651;28;20030;-79
2021/11/21 08:50:28;;;;;;;0.57;0.50;;;;;;;4.31;91.01;100484.50;5082146;28;20020;-79
2021/11/21 08:52:54;;;;;;;0.22;0.22;;;;;;;4.32;90.94;100492.38;5076914;28;20024;-78
2021/11/21 08:55:19;;;;;;;0.80;0.43;;;;;;;4.32;90.86;100496.94;5071539;28;20028;-78
2021/11/21 08:57:47;;;;;;;0.20;0.20;;;;;;;4.30;90.70;100502.56;5072316;28;20021;-78
2021/11/21 09:00:14;;;;;;;1.85;0.43;;;;;;;4.30;90.43;100505.25;5072236;28;20103;-78
2021/11/21 09:02:39;;;;;;;3.45;0.50;;;;;;;4.33;90.46;100512.88;5071270;28;20388;-78
2021/11/21 09:05:08;;;;;;;0.93;0.60;;;;;;;4.34;90.53;100513.72;5079316;28;20028;-79
2021/11/21 09:07:37;;;;;;;1.10;0.40;;;;;;;4.35;90.45;100518.88;5092762;28;20055;-79
2021/11/21 09:10:07;;;;;;;0.50;0.30;;;;;;;4.36;90.44;100528.59;5090301;28;20040;-79
2021/11/21 09:12:33;;;;;;;1.17;0.40;;;;;;;4.35;90.15;100529.66;5092656;28;20028;-79
2021/11/21 09:14:58;;;;;;;1.65;0.50;;;;;;;4.37;90.24;100538.34;5085943;28;20036;-79
2021/11/21 09:17:24;;;;;;;2.00;0.35;;;;;;;4.38;90.08;100541.84;5072415;28;20021;-79
2021/11/21 09:19:49;;;;;;;0.60;0.50;;;;;;;4.39;90.17;100540.78;5072616;28;20046;-78
2021/11/21 09:22:15;;;;;;;2.03;0.40;;;;;;;4.43;89.97;100555.47;5071400;28;20472;-78
2021/11/21 09:24:40;;;;;;;1.23;0.50;;;;;;;4.46;89.94;100552.28;5071200;28;20039;-78
2021/11/21 09:27:07;;;;;;;1.85;0.50;;;;;;;4.51;90.17;100559.66;5072469;28;20081;-78
2021/11/21 09:29:34;;;;;;;1.70;0.43;;;;;;;4.55;89.92;100561.63;5071985;28;20029;-80
2021/11/21 09:31:59;;;;;;;3.03;0.63;;;;;;;4.61;89.97;100557.16;5072475;28;20037;-79
2021/11/21 09:34:24;;;;;;;2.42;0.40;;;;;;;4.63;89.74;100558.56;5084848;28;20484;-79
2021/11/21 09:36:50;;;;;;;1.02;0.50;;;;;;;4.68;89.76;100563.25;5072090;28;20025;-79
2021/11/21 09:39:16;;;;;;;1.70;0.40;;;;;;;4.71;89.78;100567.34;5072387;28;20020;-79
2021/11/21 09:41:41;;;;;;;0.50;0.30;;;;;;;4.74;89.99;100572.25;5072063;28;20035;-79
2021/11/21 09:44:07;;;;;;;0.38;0.30;;;;;;;4.73;89.35;100571.44;5070700;28;20051;-79
2021/11/21 09:46:33;;;;;;;0.85;0.60;;;;;;;4.72;89.35;100575.22;5089846;28;20099;-79
2021/11/21 09:48:58;;;;;;;1.02;0.40;;;;;;;4.73;89.45;100566.03;5090143;28;20027;-79
2021/11/21 09:51:24;;;;;;;0.50;0.40;;;;;;;4.74;89.40;100580.38;5074824;28;20184;-79
2021/11/21 09:53:50;;;;;;;1.42;0.43;;;;;;;4.73;89.29;100579.56;5072132;28;20354;-79
2021/11/21 09:56:16;;;;;;;0.80;0.43;;;;;;;4.74;89.24;100586.59;5072254;28;20491;-81
2021/11/21 09:58:41;;;;;;;1.60;0.47;;;;;;;4.74;88.87;100591.16;5072352;28;20063;-78
2021/11/21 10:01:07;;;;;;;1.15;0.57;;;;;;;4.72;88.99;100596.81;5075045;28;20510;-79
2021/11/21 10:03:44;;;;;;;0.90;0.43;;;;;;;4.73;88.90;100593.06;5074937;28;20033;-78
2021/11/21 10:06:09;;;;;;;1.05;0.50;;;;;;;4.71;88.79;100592.47;5088697;28;20050;-78
2021/11/21 10:08:42;;;;;;;1.33;0.30;;;;;;;4.68;88.40;100592.94;5095132;28;20457;-79
2021/11/21 10:11:08;;;;;;;;;;;;;;;4.66;88.56;100601.31;5078087;28;20058;-79
2021/11/21 10:13:36;;;;;;;0.30;0.30;;;;;;;4.64;88.33;100608.81;5095275;28;20352;-78
2021/11/21 10:16:27;;;;;;;1.42;0.40;;;;;;;4.65;88.44;100609.63;5094784;28;20051;-79
2021/11/21 10:19:05;;;;;;;1.13;0.60;;;;;;;4.69;88.49;100618.88;5095018;28;20477;-79
2021/11/21 10:21:35;;;;;;;1.38;0.30;;;;;;;4.70;88.25;100623.25;5078858;28;20056;-79
2021/11/21 10:24:10;;;;;;;1.05;0.50;;;;;;;4.71;88.23;100619.47;5075611;28;20029;-79
2021/11/21 10:26:36;;;;;;;0.68;0.43;;;;;;;4.72;88.20;100637.34;5092362;28;20020;-79
2021/11/21 10:29:01;;;;;;;1.25;0.50;;;;;;;4.72;88.09;100637.34;5094669;28;20077;-78
2021/11/21 10:31:26;;;;;;;1.17;0.40;;;;;;;4.71;88.03;100643.78;5094571;28;20024;-78
2021/11/21 10:33:58;;;;;;;0.82;0.40;;;;;;;4.71;88.16;100640.25;5077523;28;20032;-79
2021/11/21 10:36:30;;;;;;;1.75;0.40;;;;;;;4.69;87.93;100648.59;5093165;28;20035;-79
2021/11/21 10:39:03;;;;;;;1.30;0.40;;;;;;;4.67;87.74;100646.13;5095675;28;20036;-79
2021/11/21 10:41:29;;;;;;;0.90;0.50;;;;;;;4.67;87.76;100656.94;5093100;28;20511;-79
2021/11/21 10:44:02;;;;;;;0.60;0.32;;;;;;;4.65;87.85;100659.06;5095487;28;20024;-79
2021/11/21 10:46:35;;;;;;;0.60;0.38;;;;;;;4.66;87.72;100670.66;5078634;28;20546;-79
2021/11/21 10:49:21;;;;;;;1.08;0.43;;;;;;;4.68;87.69;100671.25;5078167;28;20322;-79
2021/11/21 10:52:08;;;;;;;1.63;0.50;;;;;;;4.71;87.56;100676.19;5074042;28;20028;-79
2021/11/21 10:54:33;;;;;;;0.35;0.35;;;;;;;4.74;87.61;100678.41;5075053;28;20394;-79
2021/11/21 10:57:00;;;;;;;0.80;0.40;;;;;;;4.75;87.45;100680.06;5074811;28;20027;-79
2021/11/21 10:59:51;;;;;;;1.30;0.40;;;;;;;4.77;87.36;100682.50;5073833;28;20390;-79
2021/11/21 11:02:31;;;;;;;0.88;0.40;;;;;;;4.78;87.12;100684.97;5073826;28;20031;-78
2021/11/21 11:05:06;;;;;;;2.17;0.40;;;;;;;4.79;87.04;100689.31;5074503;28;20024;-79
2021/11/21 11:07:36;;;;;;;1.65;0.35;;;;;;;4.82;87.27;100686.13;5074780;28;20020;-79
2021/11/21 11:10:02;;;;;;;0.63;0.43;;;;;;;4.84;86.95;100689.44;5074415;28;20033;-78
2021/11/21 11:12:27;;;;;;;0.93;0.28;;;;;;;4.86;86.94;100681.91;5093625;28;20031;-79
2021/11/21 11:14:55;;;;;;;1.27;0.52;;;;;;;4.90;86.84;100690.34;5091563;28;20024;-79
2021/11/21 11:17:21;;;;;;;0.55;0.35;;;;;;;4.92;86.67;100695.53;5074587;28;20023;-79
2021/11/21 11:19:46;;;;;;;0.85;0.40;;;;;;;4.90;86.46;100693.88;5073410;28;20390;-79
2021/11/21 11:22:12;;;;;;;0.75;0.32;;;;;;;4.92;86.34;100701.75;5092267;28;20081;-79
2021/11/21 11:24:40;;;;;;;0.20;0.20;;;;;;;4.94;86.28;100696.09;5093464;28;20028;-79
2021/11/21 11:27:36;;;;;;;0.60;0.30;;;;;;;4.93;85.97;100713.38;5094142;28;20029;-79
2021/11/21 11:30:02;;;;;;;0.20;0.20;;;;;;;4.99;85.98;100712.41;5093913;28;20028;-79
2021/11/21 11:32:35;;;;;;;0.57;0.35;;;;;;;5.02;85.88;100711.94;5074598;28;20029;-79